createdAt,value
2019-02-15T00:00:37.790Z,13.23
2019-02-15T00:10:59.795Z,11.77
2019-02-15T00:16:14.205Z,11.60
2019-02-15T00:21:36.905Z,12.20
2019-02-15T00:26:51.633Z,10.00
2019-02-15T00:32:05.937Z,14.10
2019-02-15T00:37:21.237Z,11.20
2019-02-15T00:42:35.771Z,11.83
2019-02-15T00:48:10.303Z,10.83
2019-02-15T00:53:41.886Z,9.50
2019-02-15T00:59:04.704Z,14.33
2019-02-15T01:04:55.066Z,12.23
2019-02-15T01:10:41.199Z,12.93
2019-02-15T01:15:55.611Z,13.60
2019-02-15T01:21:09.972Z,10.93
2019-02-15T01:26:40.987Z,12.00
2019-02-15T01:32:17.629Z,15.27
2019-02-15T01:37:51.005Z,10.93
2019-02-15T01:43:27.021Z,11.10
2019-02-15T01:48:41.317Z,11.33
2019-02-15T01:53:56.232Z,12.57
2019-02-15T01:59:10.880Z,12.60
2019-02-15T02:04:25.810Z,10.90
2019-02-15T02:09:40.405Z,13.80
2019-02-15T02:14:55.054Z,17.50
2019-02-15T02:20:10.759Z,13.57
2019-02-15T02:25:25.827Z,14.33
2019-02-15T02:30:40.607Z,11.37
2019-02-15T02:36:00.337Z,9.40
2019-02-15T02:41:15.015Z,11.97
2019-02-15T02:46:29.498Z,9.97
2019-02-15T02:51:45.442Z,10.53
2019-02-15T02:57:00.094Z,10.53
2019-02-15T03:02:14.312Z,13.63
2019-02-15T03:07:29.037Z,12.80
2019-02-15T03:12:43.476Z,11.00
2019-02-15T03:17:58.025Z,14.30
2019-02-15T03:23:12.648Z,11.30
2019-02-15T03:28:27.026Z,8.70
2019-02-15T03:33:41.602Z,12.17
2019-02-15T03:39:05.398Z,11.03
2019-02-15T03:44:22.447Z,11.43
2019-02-15T03:49:36.162Z,11.43
2019-02-15T03:54:50.470Z,9.70
2019-02-15T04:00:05.345Z,9.30
2019-02-15T04:05:19.687Z,9.37
2019-02-15T04:10:34.050Z,7.70
2019-02-15T04:15:48.855Z,9.77
2019-02-15T04:21:03.664Z,12.33
2019-02-15T04:26:18.253Z,9.80
2019-02-15T04:31:34.961Z,11.83
2019-02-15T04:36:49.238Z,12.27
2019-02-15T04:42:03.735Z,11.27
2019-02-15T04:47:18.277Z,12.20
2019-02-15T04:52:32.808Z,8.87
2019-02-15T04:57:48.622Z,10.37
2019-02-15T05:03:03.255Z,10.37
2019-02-15T05:08:17.901Z,8.43
2019-02-15T05:13:32.505Z,9.43
2019-02-15T05:18:46.992Z,7.63
2019-02-15T05:24:01.638Z,9.17
2019-02-15T05:29:16.202Z,9.80
2019-02-15T05:34:31.051Z,11.43
2019-02-15T05:39:45.095Z,9.47
2019-02-15T05:45:03.747Z,9.00
2019-02-15T05:50:15.651Z,8.43
2019-02-15T05:55:30.059Z,9.37
2019-02-15T06:00:44.120Z,9.20
2019-02-15T06:05:59.219Z,7.47
2019-02-15T06:11:13.866Z,9.90
2019-02-15T06:16:29.913Z,7.03
2019-02-15T06:21:44.438Z,11.63
2019-02-15T06:27:07.151Z,10.63
2019-02-15T06:32:21.567Z,10.33
2019-02-15T06:37:35.671Z,5.97
2019-02-15T06:42:49.836Z,7.73
2019-02-15T06:48:04.274Z,8.83
2019-02-15T06:53:18.899Z,11.10
2019-02-15T06:58:33.321Z,9.40
2019-02-15T07:04:10.081Z,7.67
2019-02-15T07:09:25.613Z,9.10
2019-02-15T07:14:40.282Z,9.23
2019-02-15T07:19:54.699Z,9.13
2019-02-15T07:25:10.314Z,10.00
2019-02-15T07:30:26.383Z,9.00
2019-02-15T07:35:41.134Z,7.77
2019-02-15T07:40:55.044Z,8.83
2019-02-15T07:46:09.353Z,7.57
2019-02-15T07:51:23.980Z,10.67
2019-02-15T07:56:38.867Z,9.33
2019-02-15T08:02:01.315Z,8.97
2019-02-15T08:07:09.435Z,6.00
2019-02-15T08:12:24.458Z,7.00
2019-02-15T08:17:39.083Z,6.50
2019-02-15T08:22:53.310Z,7.73
2019-02-15T08:28:08.142Z,9.67
2019-02-15T08:33:23.080Z,9.83
2019-02-15T08:38:37.471Z,6.43
2019-02-15T08:43:51.769Z,5.87
2019-02-15T08:49:09.366Z,7.17
2019-02-15T08:54:23.593Z,10.47
2019-02-15T08:59:38.134Z,8.13
2019-02-15T09:04:52.336Z,9.07
2019-02-15T09:10:09.276Z,5.90
2019-02-15T09:15:23.645Z,7.03
2019-02-15T09:20:38.171Z,8.10
2019-02-15T09:25:53.820Z,5.27
2019-02-15T09:31:08.375Z,9.60
2019-02-15T09:36:23.142Z,7.33
2019-02-15T09:41:37.785Z,9.63
2019-02-15T09:46:54.450Z,5.93
2019-02-15T09:52:08.953Z,6.43
2019-02-15T09:57:23.604Z,6.10
2019-02-15T10:02:38.182Z,6.70
2019-02-15T10:07:52.795Z,3.33
2019-02-15T10:13:07.688Z,4.40
2019-02-15T10:18:22.440Z,4.43
2019-02-15T10:23:37.061Z,1.90
2019-02-15T10:28:51.588Z,2.23
2019-02-15T10:34:05.699Z,1.27
2019-02-15T10:39:20.075Z,1.63
2019-02-15T10:44:34.511Z,1.87
2019-02-15T10:49:49.422Z,1.30
2019-02-15T10:55:04.091Z,0.97
2019-02-15T11:00:19.439Z,1.10
2019-02-15T11:05:33.692Z,1.50
2019-02-15T11:10:48.391Z,0.80
2019-02-15T11:16:03.153Z,0.87
2019-02-15T11:21:17.869Z,2.97
2019-02-15T11:26:34.132Z,0.90
2019-02-15T11:31:49.679Z,0.90
2019-02-15T11:37:04.526Z,1.07
2019-02-15T11:42:19.060Z,0.90
2019-02-15T11:47:33.803Z,2.80
2019-02-15T11:52:48.341Z,0.80
2019-02-15T11:58:03.406Z,1.17
2019-02-15T12:03:17.477Z,0.90
2019-02-15T12:08:31.863Z,1.30
2019-02-15T12:13:46.683Z,1.73
2019-02-15T12:19:02.153Z,1.67
2019-02-15T12:24:16.017Z,5.63
2019-02-15T12:29:30.564Z,15.80
2019-02-15T12:34:45.386Z,3.37
2019-02-15T12:40:00.007Z,7.83
2019-02-15T12:45:14.443Z,1.23
2019-02-15T12:50:29.143Z,2.40
2019-02-15T12:55:43.591Z,3.07
2019-02-15T13:00:57.951Z,2.80
2019-02-15T13:06:12.295Z,3.10
2019-02-15T13:11:26.975Z,2.90
2019-02-15T13:16:41.608Z,2.77
2019-02-15T13:21:56.127Z,3.33
2019-02-15T13:27:10.589Z,2.73
2019-02-15T13:32:25.390Z,5.47
2019-02-15T13:37:39.730Z,2.70
2019-02-15T13:42:54.191Z,2.37
2019-02-15T13:48:08.843Z,2.47
2019-02-15T13:53:26.255Z,1.77
2019-02-15T13:58:40.666Z,3.63
2019-02-15T14:03:55.066Z,2.50
2019-02-15T14:09:09.906Z,3.23
2019-02-15T14:14:24.510Z,2.83
2019-02-15T14:19:39.085Z,2.17
2019-02-15T14:24:53.674Z,3.67
2019-02-15T14:30:09.315Z,4.43
2019-02-15T14:35:23.791Z,7.23
2019-02-15T14:40:38.655Z,4.37
2019-02-15T14:45:53.154Z,2.93
2019-02-15T14:51:08.855Z,2.87
2019-02-15T15:01:30.478Z,3.27
2019-02-15T15:06:44.876Z,3.03
2019-02-15T15:11:59.515Z,3.10
2019-02-15T15:17:14.517Z,4.43
2019-02-15T15:22:29.199Z,3.97
2019-02-15T15:27:44.633Z,5.87
2019-02-15T15:32:59.142Z,7.37
2019-02-15T15:38:13.601Z,3.53
2019-02-15T15:43:28.391Z,4.80
2019-02-15T15:48:43.064Z,8.07
2019-02-15T15:53:58.022Z,5.00
2019-02-15T15:59:12.704Z,4.93
2019-02-15T16:04:28.364Z,7.43
2019-02-15T16:09:42.808Z,4.80
2019-02-15T16:14:57.222Z,8.53
2019-02-15T16:20:12.974Z,5.70
2019-02-15T16:25:34.997Z,6.13
2019-02-15T16:30:49.512Z,4.30
2019-02-15T16:36:05.362Z,11.27
2019-02-15T16:41:23.715Z,9.60
2019-02-15T16:46:38.441Z,7.93
2019-02-15T16:51:53.023Z,7.00
2019-02-15T16:57:07.472Z,7.33
2019-02-15T17:02:22.009Z,7.27
2019-02-15T17:07:36.518Z,7.00
2019-02-15T17:12:52.706Z,6.73
2019-02-15T17:18:07.359Z,11.07
2019-02-15T17:23:22.560Z,6.03
2019-02-15T17:28:37.374Z,6.60
2019-02-15T17:33:52.070Z,10.50
2019-02-15T17:39:07.360Z,6.43
2019-02-15T17:44:22.605Z,8.07
2019-02-15T17:49:37.287Z,9.33
2019-02-15T17:54:53.052Z,8.00
2019-02-15T18:00:08.567Z,6.47
2019-02-15T18:05:24.415Z,6.80
2019-02-15T18:11:12.174Z,12.37
2019-02-15T18:16:27.161Z,10.00
2019-02-15T18:27:02.096Z,10.63
2019-02-15T18:32:16.776Z,7.47
2019-02-15T18:37:31.508Z,7.43
2019-02-15T18:42:46.468Z,9.13
2019-02-15T18:48:03.165Z,6.03
2019-02-15T18:53:17.895Z,7.60
2019-02-15T18:58:32.543Z,6.53
2019-02-15T19:03:47.076Z,5.23
2019-02-15T19:09:02.243Z,7.40
2019-02-15T19:14:18.205Z,6.40
2019-02-15T19:19:32.834Z,5.13
2019-02-15T19:24:47.339Z,6.60
2019-02-15T19:30:01.990Z,6.17
2019-02-15T19:35:16.781Z,7.03
2019-02-15T19:40:31.696Z,7.27
2019-02-15T19:45:46.392Z,8.17
2019-02-15T19:51:00.801Z,8.93
2019-02-15T19:56:15.583Z,8.07
2019-02-15T20:01:30.268Z,7.30
2019-02-15T20:06:44.674Z,6.17
2019-02-15T20:11:59.140Z,5.27
2019-02-15T20:17:13.701Z,5.87
2019-02-15T20:22:28.340Z,7.07
2019-02-15T20:27:42.710Z,7.10
2019-02-15T20:32:57.465Z,4.80
2019-02-15T20:38:12.241Z,6.90
2019-02-15T20:43:26.723Z,5.90
2019-02-15T20:48:41.303Z,6.90
2019-02-15T20:53:56.032Z,6.03
2019-02-15T20:59:10.921Z,5.77
2019-02-15T21:04:25.716Z,5.80
2019-02-15T21:09:40.291Z,5.80
2019-02-15T21:14:54.861Z,6.43
2019-02-15T21:20:10.626Z,8.43
2019-02-15T21:25:25.049Z,6.17
2019-02-15T21:30:39.513Z,6.30
2019-02-15T21:35:54.234Z,8.70
2019-02-15T21:41:09.381Z,4.70
2019-02-15T21:46:25.465Z,5.77
2019-02-15T21:51:40.451Z,4.23
2019-02-15T21:56:55.057Z,5.20
2019-02-15T22:02:08.927Z,5.77
2019-02-15T22:07:23.975Z,3.93
2019-02-15T22:12:38.523Z,4.87
2019-02-15T22:17:53.004Z,5.27
2019-02-15T22:23:07.577Z,3.50
2019-02-15T22:28:22.919Z,4.30
2019-02-15T22:33:37.981Z,3.20
2019-02-15T22:38:52.556Z,5.90
2019-02-15T22:44:11.597Z,3.77
2019-02-15T22:49:28.006Z,4.07
2019-02-15T22:54:42.384Z,4.43
2019-02-15T23:00:00.980Z,5.40
2019-02-15T23:05:13.394Z,6.43
2019-02-15T23:10:27.554Z,5.30
2019-02-15T23:15:42.004Z,5.83
2019-02-15T23:20:56.839Z,5.73
2019-02-15T23:26:11.217Z,6.63
2019-02-15T23:31:25.674Z,7.93
2019-02-15T23:36:40.127Z,5.20
2019-02-15T23:41:54.561Z,5.37
2019-02-15T23:47:09.086Z,4.17
2019-02-15T23:52:23.614Z,4.43
2019-02-15T23:57:38.424Z,6.03
